createdAt,value
2017-08-26T00:02:27.011Z,8.40
2017-08-26T00:04:56.098Z,8.50
2017-08-26T00:07:24.441Z,12.33
2017-08-26T00:09:52.743Z,8.97
2017-08-26T00:12:21.039Z,10.07
2017-08-26T00:14:49.382Z,8.30
2017-08-26T00:17:17.679Z,8.17
2017-08-26T00:19:45.978Z,9.53
2017-08-26T00:22:14.303Z,6.90
2017-08-26T00:24:42.633Z,9.80
2017-08-26T00:27:10.954Z,8.17
2017-08-26T00:29:39.272Z,8.07
2017-08-26T00:32:07.606Z,9.63
2017-08-26T00:34:35.906Z,7.47
2017-08-26T00:37:04.194Z,6.67
2017-08-26T00:39:32.511Z,8.77
2017-08-26T00:42:00.828Z,7.70
2017-08-26T00:44:29.144Z,8.80
2017-08-26T00:46:57.449Z,9.53
2017-08-26T00:49:25.791Z,7.53
2017-08-26T00:51:54.086Z,8.10
2017-08-26T00:54:22.379Z,9.27
2017-08-26T00:56:50.702Z,9.80
2017-08-26T00:59:19.095Z,8.27
2017-08-26T01:01:47.386Z,8.20
2017-08-26T01:04:15.679Z,7.20
2017-08-26T01:06:44.005Z,7.40
2017-08-26T01:09:12.294Z,7.77
2017-08-26T01:11:40.626Z,10.27
2017-08-26T01:14:08.991Z,9.40
2017-08-26T01:16:37.346Z,10.57
2017-08-26T01:19:05.687Z,10.10
2017-08-26T01:21:34.030Z,10.63
2017-08-26T01:24:02.397Z,9.53
2017-08-26T01:26:30.694Z,10.30
2017-08-26T01:28:59.770Z,9.53
2017-08-26T01:31:28.122Z,10.90
2017-08-26T01:33:56.428Z,9.53
2017-08-26T01:36:24.754Z,12.30
2017-08-26T01:38:53.058Z,10.60
2017-08-26T01:41:21.386Z,11.07
2017-08-26T01:43:49.695Z,11.27
2017-08-26T01:46:18.023Z,13.90
2017-08-26T01:48:46.375Z,10.73
2017-08-26T01:51:14.678Z,12.67
2017-08-26T01:53:43.037Z,11.70
2017-08-26T01:56:11.332Z,12.97
2017-08-26T01:58:40.419Z,11.03
2017-08-26T02:01:08.779Z,11.00
2017-08-26T02:03:37.123Z,10.30
2017-08-26T02:06:05.419Z,8.83
2017-08-26T02:08:33.756Z,9.83
2017-08-26T02:11:02.099Z,11.53
2017-08-26T02:13:31.191Z,10.30
2017-08-26T02:15:59.506Z,10.07
2017-08-26T02:18:27.803Z,8.17
2017-08-26T02:20:56.155Z,9.03
2017-08-26T02:23:24.459Z,9.87
2017-08-26T02:25:52.759Z,8.47
2017-08-26T02:28:21.127Z,12.43
2017-08-26T02:30:49.434Z,11.43
2017-08-26T02:33:17.775Z,9.40
2017-08-26T02:35:46.082Z,10.57
2017-08-26T02:38:14.395Z,11.27
2017-08-26T02:40:42.733Z,9.23
2017-08-26T02:43:11.032Z,9.93
2017-08-26T02:45:39.368Z,15.63
2017-08-26T02:48:07.661Z,9.63
2017-08-26T02:50:36.019Z,8.13
2017-08-26T02:53:04.315Z,8.67
2017-08-26T02:55:32.634Z,9.70
2017-08-26T02:58:00.972Z,7.53
2017-08-26T03:00:29.300Z,8.70
2017-08-26T03:02:57.586Z,8.63
2017-08-26T03:05:25.931Z,8.10
2017-08-26T03:07:54.198Z,9.80
2017-08-26T03:10:22.539Z,9.20
2017-08-26T03:12:50.851Z,7.17
2017-08-26T03:15:19.144Z,7.30
2017-08-26T03:17:47.480Z,9.37
2017-08-26T03:20:15.787Z,7.90
2017-08-26T03:22:44.083Z,8.70
2017-08-26T03:25:12.431Z,10.20
2017-08-26T03:27:41.500Z,8.37
2017-08-26T03:30:09.801Z,8.00
2017-08-26T03:32:38.131Z,9.00
2017-08-26T03:35:06.464Z,8.90
2017-08-26T03:37:34.799Z,7.33
2017-08-26T03:40:03.107Z,7.90
2017-08-26T03:42:31.401Z,7.80
2017-08-26T03:45:00.507Z,7.80
2017-08-26T03:47:28.810Z,8.53
2017-08-26T03:49:57.116Z,9.63
2017-08-26T03:52:25.445Z,8.60
2017-08-26T03:54:53.743Z,7.53
2017-08-26T03:57:22.074Z,9.43
2017-08-26T03:59:50.418Z,10.13
2017-08-26T04:02:18.763Z,11.37
2017-08-26T04:04:47.071Z,8.87
2017-08-26T04:07:15.415Z,13.33
2017-08-26T04:09:43.778Z,14.43
2017-08-26T04:12:12.125Z,11.03
2017-08-26T04:14:40.426Z,10.90
2017-08-26T04:17:08.777Z,13.10
2017-08-26T04:19:37.091Z,18.93
2017-08-26T04:22:05.430Z,14.43
2017-08-26T04:24:33.735Z,11.53
2017-08-26T04:27:02.076Z,13.00
2017-08-26T04:29:30.421Z,11.40
2017-08-26T04:31:58.726Z,15.17
2017-08-26T04:34:27.072Z,7.63
2017-08-26T04:36:55.367Z,8.10
2017-08-26T04:39:23.676Z,6.93
2017-08-26T04:41:52.043Z,7.73
2017-08-26T04:44:20.347Z,10.10
2017-08-26T04:46:48.659Z,11.97
2017-08-26T04:49:17.003Z,9.67
2017-08-26T04:51:45.341Z,9.97
2017-08-26T04:54:13.683Z,7.53
2017-08-26T04:56:41.991Z,8.90
2017-08-26T04:59:10.375Z,9.80
2017-08-26T05:01:38.672Z,8.43
2017-08-26T05:04:06.967Z,8.33
2017-08-26T05:06:35.295Z,7.87
2017-08-26T05:09:03.585Z,8.17
2017-08-26T05:11:31.878Z,9.13
2017-08-26T05:14:00.965Z,8.00
2017-08-26T05:16:29.255Z,9.40
2017-08-26T05:18:57.600Z,9.07
2017-08-26T05:21:25.898Z,11.40
2017-08-26T05:23:54.423Z,10.37
2017-08-26T05:26:22.743Z,8.70
2017-08-26T05:28:51.046Z,11.60
2017-08-26T05:31:19.386Z,9.30
2017-08-26T05:33:47.681Z,9.00
2017-08-26T05:36:15.993Z,9.67
2017-08-26T05:38:44.322Z,8.90
2017-08-26T05:41:12.627Z,12.20
2017-08-26T05:43:40.936Z,10.80
2017-08-26T05:46:09.259Z,13.80
2017-08-26T05:48:38.339Z,16.50
2017-08-26T05:51:06.679Z,14.30
2017-08-26T05:53:35.014Z,18.27
2017-08-26T05:56:03.310Z,22.53
2017-08-26T05:58:31.648Z,13.17
2017-08-26T06:00:59.992Z,16.60
2017-08-26T06:03:28.318Z,19.27
2017-08-26T06:05:56.639Z,14.20
2017-08-26T06:08:24.991Z,13.67
2017-08-26T06:10:53.296Z,10.23
2017-08-26T06:13:21.622Z,14.13
2017-08-26T06:15:49.962Z,10.70
2017-08-26T06:18:18.278Z,10.57
2017-08-26T06:20:46.610Z,8.97
2017-08-26T06:23:14.925Z,11.80
2017-08-26T06:25:43.251Z,8.60
2017-08-26T06:28:11.595Z,10.17
2017-08-26T06:30:39.931Z,9.90
2017-08-26T06:33:08.294Z,12.50
2017-08-26T06:35:36.606Z,10.33
2017-08-26T06:38:04.952Z,15.40
2017-08-26T06:40:33.266Z,13.63
2017-08-26T06:43:01.667Z,10.30
2017-08-26T06:45:30.052Z,12.67
2017-08-26T06:47:58.361Z,10.60
2017-08-26T06:50:26.693Z,10.33
2017-08-26T06:52:55.035Z,14.17
2017-08-26T06:55:23.398Z,11.37
2017-08-26T06:57:51.734Z,9.80
2017-08-26T07:00:20.062Z,8.67
2017-08-26T07:02:48.351Z,7.67
2017-08-26T07:05:16.755Z,9.77
2017-08-26T07:07:45.157Z,10.03
2017-08-26T07:10:13.504Z,10.97
2017-08-26T07:12:41.889Z,8.10
2017-08-26T07:15:10.292Z,8.37
2017-08-26T07:17:38.614Z,7.40
2017-08-26T07:20:07.050Z,10.33
2017-08-26T07:22:35.398Z,9.30
2017-08-26T07:25:03.720Z,8.43
2017-08-26T07:27:32.057Z,7.30
2017-08-26T07:30:00.368Z,8.90
2017-08-26T07:32:28.836Z,10.60
2017-08-26T07:34:57.229Z,7.57
2017-08-26T07:37:25.648Z,7.47
2017-08-26T07:39:54.043Z,8.23
2017-08-26T07:42:22.415Z,11.13
2017-08-26T07:44:50.777Z,21.23
2017-08-26T07:47:19.181Z,12.00
2017-08-26T07:49:47.529Z,15.27
2017-08-26T07:52:15.892Z,10.90
2017-08-26T07:54:44.254Z,9.90
2017-08-26T07:57:12.692Z,9.60
2017-08-26T07:59:41.156Z,9.70
2017-08-26T08:02:09.463Z,8.07
2017-08-26T08:04:37.780Z,9.23
2017-08-26T08:07:06.118Z,11.40
2017-08-26T08:09:34.465Z,10.40
2017-08-26T08:12:02.804Z,14.10
2017-08-26T08:14:31.169Z,19.70
2017-08-26T08:16:59.467Z,12.50
2017-08-26T08:19:27.781Z,15.67
2017-08-26T08:21:56.166Z,14.87
2017-08-26T08:24:24.474Z,12.60
2017-08-26T08:26:52.795Z,16.40
2017-08-26T08:29:21.932Z,13.30
2017-08-26T08:31:50.238Z,16.00
2017-08-26T08:34:18.583Z,17.47
2017-08-26T08:36:46.926Z,18.90
2017-08-26T08:39:15.227Z,20.93
2017-08-26T08:41:43.539Z,16.90
2017-08-26T08:44:11.904Z,16.93
2017-08-26T08:46:40.242Z,17.60
2017-08-26T08:49:08.550Z,15.77
2017-08-26T08:51:36.883Z,18.10
2017-08-26T08:54:05.189Z,20.20
2017-08-26T08:56:33.525Z,18.47
2017-08-26T08:59:01.865Z,17.80
2017-08-26T09:01:30.175Z,16.13
2017-08-26T09:03:58.479Z,17.70
2017-08-26T09:06:26.823Z,13.30
2017-08-26T09:08:55.172Z,18.83
2017-08-26T09:11:23.466Z,16.40
2017-08-26T09:13:51.759Z,14.83
2017-08-26T09:16:20.104Z,14.43
2017-08-26T09:18:48.398Z,17.07
2017-08-26T09:21:16.818Z,16.30
2017-08-26T09:23:45.194Z,17.53
2017-08-26T09:26:13.536Z,19.90
2017-08-26T09:28:42.248Z,18.60
2017-08-26T09:31:10.556Z,14.73
2017-08-26T09:33:38.860Z,14.80
2017-08-26T09:36:07.242Z,17.73
2017-08-26T09:38:35.602Z,21.40
2017-08-26T09:41:03.909Z,15.93
2017-08-26T09:43:32.196Z,17.30
2017-08-26T09:46:00.552Z,20.33
2017-08-26T09:48:28.851Z,18.10
2017-08-26T09:50:57.194Z,19.90
2017-08-26T09:53:25.518Z,18.73
2017-08-26T09:55:53.882Z,19.47
2017-08-26T09:58:22.206Z,18.60
2017-08-26T10:00:50.517Z,20.83
2017-08-26T10:03:18.860Z,17.73
2017-08-26T10:05:47.179Z,17.07
2017-08-26T10:08:15.518Z,19.30
2017-08-26T10:10:43.872Z,18.70
2017-08-26T10:13:12.182Z,15.33
2017-08-26T10:15:40.527Z,16.90
2017-08-26T10:18:08.839Z,19.90
2017-08-26T10:20:37.187Z,18.70
2017-08-26T10:23:05.557Z,17.83
2017-08-26T10:25:33.856Z,20.83
2017-08-26T10:28:02.159Z,18.70
2017-08-26T10:30:30.515Z,19.73
2017-08-26T10:32:58.819Z,24.07
2017-08-26T10:35:27.170Z,18.77
2017-08-26T10:37:56.071Z,18.43
2017-08-26T10:40:27.345Z,22.00
2017-08-26T10:42:56.555Z,22.00
2017-08-26T10:45:24.910Z,15.30
2017-08-26T10:47:53.207Z,18.20
2017-08-26T10:50:21.509Z,20.93
2017-08-26T10:52:49.839Z,20.00
2017-08-26T10:55:18.147Z,19.50
2017-08-26T10:57:46.499Z,20.47
2017-08-26T11:00:14.790Z,27.23
2017-08-26T11:02:43.096Z,20.27
2017-08-26T11:05:11.419Z,23.53
2017-08-26T11:07:39.763Z,19.97
2017-08-26T11:10:08.059Z,20.00
2017-08-26T11:12:36.445Z,18.17
2017-08-26T11:15:04.760Z,24.83
2017-08-26T11:17:33.090Z,21.80
2017-08-26T11:20:01.438Z,18.27
2017-08-26T11:22:30.506Z,17.70
2017-08-26T11:24:58.821Z,13.90
2017-08-26T11:27:27.189Z,31.13
2017-08-26T11:29:55.499Z,20.30
2017-08-26T11:32:23.882Z,24.40
2017-08-26T11:34:52.203Z,17.97
2017-08-26T11:37:20.499Z,15.37
2017-08-26T11:39:48.851Z,15.13
2017-08-26T11:42:17.460Z,18.33
2017-08-26T11:44:45.790Z,21.83
2017-08-26T11:47:14.091Z,19.23
2017-08-26T11:49:43.204Z,23.60
2017-08-26T11:52:12.235Z,19.07
2017-08-26T11:54:40.608Z,17.70
2017-08-26T11:57:08.945Z,19.90
2017-08-26T11:59:37.295Z,15.93
2017-08-26T12:02:05.605Z,19.20
2017-08-26T12:04:33.911Z,20.50
2017-08-26T12:07:02.259Z,21.93
2017-08-26T12:09:30.581Z,18.23
2017-08-26T12:11:58.946Z,19.30
2017-08-26T12:14:27.251Z,19.53
2017-08-26T12:16:55.647Z,18.60
2017-08-26T12:19:23.946Z,22.47
2017-08-26T12:21:52.270Z,22.23
2017-08-26T12:24:20.611Z,21.13
2017-08-26T12:26:48.935Z,19.77
2017-08-26T12:29:17.379Z,16.90
2017-08-26T12:31:45.782Z,17.03
2017-08-26T12:34:14.074Z,21.07
2017-08-26T12:36:42.428Z,17.27
2017-08-26T12:39:10.938Z,23.00
2017-08-26T12:41:39.308Z,17.80
2017-08-26T12:44:07.679Z,14.83
2017-08-26T12:46:36.031Z,17.27
2017-08-26T12:49:04.613Z,14.40
2017-08-26T12:51:33.035Z,16.57
2017-08-26T12:54:01.596Z,15.60
2017-08-26T12:56:30.059Z,15.40
2017-08-26T12:58:58.362Z,22.87
2017-08-26T13:01:26.835Z,16.83
2017-08-26T13:03:55.580Z,16.57
2017-08-26T13:06:23.926Z,17.33
2017-08-26T13:08:52.319Z,16.13
2017-08-26T13:11:20.690Z,15.90
2017-08-26T13:13:49.528Z,17.23
2017-08-26T13:16:17.871Z,16.33
2017-08-26T13:18:46.236Z,17.93
2017-08-26T13:21:14.555Z,17.03
2017-08-26T13:23:42.855Z,15.37
2017-08-26T13:26:11.203Z,17.50
2017-08-26T13:28:39.585Z,15.30
2017-08-26T13:31:07.880Z,17.67
2017-08-26T13:33:37.001Z,22.67
2017-08-26T13:36:06.110Z,19.57
2017-08-26T13:38:34.482Z,15.50
2017-08-26T13:41:02.845Z,15.93
2017-08-26T13:43:31.152Z,17.20
2017-08-26T13:45:59.492Z,15.83
2017-08-26T13:48:27.806Z,16.73
2017-08-26T13:50:56.163Z,15.13
2017-08-26T13:53:24.647Z,18.77
2017-08-26T13:55:53.005Z,19.07
2017-08-26T13:58:21.367Z,19.70
2017-08-26T14:00:49.663Z,20.03
2017-08-26T14:03:17.969Z,22.07
2017-08-26T14:05:46.310Z,20.43
2017-08-26T14:08:14.667Z,19.63
2017-08-26T14:10:42.978Z,18.73
2017-08-26T14:13:11.282Z,18.87
2017-08-26T14:15:39.654Z,21.43
2017-08-26T14:18:07.948Z,17.47
2017-08-26T14:20:36.278Z,22.03
2017-08-26T14:23:04.714Z,15.90
2017-08-26T14:25:33.049Z,17.63
2017-08-26T14:28:01.400Z,16.23
2017-08-26T14:30:29.710Z,18.23
2017-08-26T14:32:58.259Z,19.37
2017-08-26T14:35:26.698Z,19.47
2017-08-26T14:37:55.112Z,25.57
2017-08-26T14:40:23.588Z,18.77
2017-08-26T14:42:51.975Z,28.90
2017-08-26T14:45:20.611Z,23.43
2017-08-26T14:47:49.014Z,20.53
2017-08-26T14:50:17.462Z,16.47
2017-08-26T14:52:45.938Z,21.37
2017-08-26T14:55:14.950Z,20.87
2017-08-26T14:57:43.376Z,24.80
2017-08-26T15:00:11.736Z,19.83
2017-08-26T15:02:40.164Z,14.90
2017-08-26T15:05:08.541Z,15.90
2017-08-26T15:07:36.962Z,13.00
2017-08-26T15:10:05.357Z,18.03
2017-08-26T15:12:33.738Z,15.30
2017-08-26T15:15:02.060Z,19.30
2017-08-26T15:17:30.368Z,14.80
2017-08-26T15:19:58.713Z,14.60
2017-08-26T15:22:27.015Z,27.07
2017-08-26T15:24:55.390Z,16.33
2017-08-26T15:27:23.707Z,13.40
2017-08-26T15:29:52.000Z,14.53
2017-08-26T15:32:20.344Z,12.83
2017-08-26T15:34:48.663Z,12.97
2017-08-26T15:37:16.957Z,16.63
2017-08-26T15:39:45.292Z,15.13
2017-08-26T15:42:13.632Z,15.50
2017-08-26T15:44:42.074Z,16.23
2017-08-26T15:47:10.554Z,13.23
2017-08-26T15:49:38.902Z,11.70
2017-08-26T15:52:07.284Z,13.40
2017-08-26T15:54:35.621Z,10.40
2017-08-26T15:57:04.028Z,10.03
2017-08-26T15:59:32.422Z,11.17
2017-08-26T16:02:00.806Z,9.93
2017-08-26T16:04:29.273Z,11.37
2017-08-26T16:06:57.907Z,14.37
2017-08-26T16:09:26.216Z,14.07
2017-08-26T16:11:54.617Z,12.83
2017-08-26T16:14:23.005Z,13.40
2017-08-26T16:16:51.397Z,12.20
2017-08-26T16:19:19.821Z,14.60
2017-08-26T16:21:48.216Z,14.13
2017-08-26T16:24:16.698Z,13.20
2017-08-26T16:26:45.030Z,13.90
2017-08-26T16:29:13.636Z,12.33
2017-08-26T16:31:42.092Z,15.00
2017-08-26T16:34:10.406Z,15.30
2017-08-26T16:36:38.766Z,12.10
2017-08-26T16:39:07.156Z,12.00
2017-08-26T16:41:35.471Z,13.00
2017-08-26T16:44:03.882Z,16.63
2017-08-26T16:46:32.264Z,12.60
2017-08-26T16:49:00.640Z,10.87
2017-08-26T16:51:28.985Z,11.70
2017-08-26T16:53:57.455Z,12.27
2017-08-26T16:56:25.791Z,11.60
2017-08-26T16:58:54.152Z,14.20
2017-08-26T17:01:22.536Z,16.37
2017-08-26T17:03:50.886Z,16.30
2017-08-26T17:06:19.211Z,20.20
2017-08-26T17:08:47.576Z,20.60
2017-08-26T17:11:16.071Z,21.20
2017-08-26T17:13:44.440Z,20.87
2017-08-26T17:16:12.878Z,17.63
2017-08-26T17:18:41.660Z,16.43
2017-08-26T17:21:10.266Z,18.30
2017-08-26T17:23:38.685Z,15.43
2017-08-26T17:26:07.032Z,20.03
2017-08-26T17:28:35.384Z,16.27
2017-08-26T17:31:03.733Z,13.63
2017-08-26T17:33:32.208Z,11.27
2017-08-26T17:36:00.584Z,12.20
2017-08-26T17:38:28.954Z,14.60
2017-08-26T17:40:57.324Z,15.93
2017-08-26T17:43:25.650Z,15.50
2017-08-26T17:45:53.968Z,12.70
2017-08-26T17:48:22.324Z,12.93
2017-08-26T17:50:50.620Z,11.70
2017-08-26T17:53:18.962Z,13.57
2017-08-26T17:55:47.275Z,16.03
2017-08-26T17:58:15.635Z,17.70
2017-08-26T18:00:43.962Z,17.10
2017-08-26T18:03:12.294Z,24.73
2017-08-26T18:05:40.677Z,20.23
2017-08-26T18:08:09.012Z,17.73
2017-08-26T18:10:37.321Z,17.17
2017-08-26T18:13:05.619Z,14.60
2017-08-26T18:15:33.992Z,19.23
2017-08-26T18:18:02.434Z,16.17
2017-08-26T18:20:30.784Z,18.20
2017-08-26T18:22:59.123Z,15.80
2017-08-26T18:25:27.421Z,14.30
2017-08-26T18:27:55.719Z,15.20
2017-08-26T18:30:24.131Z,14.10
2017-08-26T18:32:52.464Z,13.63
2017-08-26T18:35:20.780Z,14.40
2017-08-26T18:37:49.119Z,15.70
2017-08-26T18:40:17.471Z,15.80
2017-08-26T18:42:45.862Z,11.40
2017-08-26T18:45:14.248Z,13.53
2017-08-26T18:47:42.579Z,13.47
2017-08-26T18:50:10.977Z,13.57
2017-08-26T18:52:39.351Z,15.57
2017-08-26T18:55:07.697Z,19.80
2017-08-26T18:57:36.175Z,25.60
2017-08-26T19:00:04.555Z,31.53
2017-08-26T19:02:32.956Z,32.40
2017-08-26T19:05:01.367Z,38.23
2017-08-26T19:07:29.801Z,41.80
2017-08-26T19:09:58.208Z,41.53
2017-08-26T19:12:26.556Z,52.60
2017-08-26T19:14:54.951Z,48.80
2017-08-26T19:17:23.308Z,50.73
2017-08-26T19:19:51.731Z,54.90
2017-08-26T19:22:20.081Z,43.60
2017-08-26T19:24:48.892Z,49.03
2017-08-26T19:27:17.408Z,46.87
2017-08-26T19:29:45.834Z,48.30
2017-08-26T19:32:14.207Z,47.67
2017-08-26T19:34:42.529Z,49.33
2017-08-26T19:37:11.427Z,50.27
2017-08-26T19:39:39.931Z,48.33
2017-08-26T19:42:08.310Z,51.60
2017-08-26T19:44:36.830Z,55.07
2017-08-26T19:47:05.180Z,58.50
2017-08-26T19:49:33.543Z,51.80
2017-08-26T19:52:01.866Z,48.10
2017-08-26T19:54:30.215Z,52.07
2017-08-26T19:56:58.574Z,50.43
2017-08-26T19:59:26.916Z,62.57
2017-08-26T20:01:55.231Z,57.00
2017-08-26T20:04:23.562Z,64.10
2017-08-26T20:06:51.924Z,58.47
2017-08-26T20:09:20.271Z,75.37
2017-08-26T20:11:48.679Z,68.20
2017-08-26T20:14:16.988Z,61.47
2017-08-26T20:16:45.496Z,70.83
2017-08-26T20:19:13.799Z,62.30
2017-08-26T20:21:42.100Z,66.37
2017-08-26T20:24:10.529Z,73.80
2017-08-26T20:26:38.820Z,65.50
2017-08-26T20:29:07.151Z,72.87
2017-08-26T20:31:35.454Z,66.87
2017-08-26T20:34:03.807Z,63.57
2017-08-26T20:36:32.120Z,63.10
2017-08-26T20:39:00.450Z,51.43
2017-08-26T20:41:28.827Z,66.70
2017-08-26T20:43:57.306Z,61.77
2017-08-26T20:46:25.625Z,50.00
2017-08-26T20:48:53.935Z,55.60
2017-08-26T20:51:22.285Z,56.13
2017-08-26T20:53:50.639Z,49.90
2017-08-26T20:56:19.025Z,44.97
2017-08-26T20:58:47.355Z,46.67
2017-08-26T21:01:15.738Z,41.00
2017-08-26T21:03:44.053Z,40.43
2017-08-26T21:06:12.386Z,46.13
2017-08-26T21:08:40.731Z,47.00
2017-08-26T21:11:09.096Z,46.57
2017-08-26T21:13:37.435Z,50.33
2017-08-26T21:16:05.739Z,44.13
2017-08-26T21:18:34.084Z,54.00
2017-08-26T21:21:02.408Z,45.40
2017-08-26T21:23:30.748Z,44.90
2017-08-26T21:25:59.088Z,53.13
2017-08-26T21:28:27.440Z,54.40
2017-08-26T21:30:55.826Z,55.27
2017-08-26T21:33:24.155Z,59.90
2017-08-26T21:35:52.490Z,59.00
2017-08-26T21:38:20.787Z,56.83
2017-08-26T21:40:49.162Z,57.17
2017-08-26T21:43:17.478Z,69.27
2017-08-26T21:45:45.967Z,62.07
2017-08-26T21:48:14.534Z,66.60
2017-08-26T21:50:42.837Z,67.57
2017-08-26T21:53:11.958Z,59.47
2017-08-26T21:55:40.280Z,72.27
2017-08-26T21:58:08.623Z,68.40
2017-08-26T22:00:36.915Z,61.73
2017-08-26T22:03:05.262Z,74.67
2017-08-26T22:05:33.612Z,79.97
2017-08-26T22:08:01.948Z,86.40
2017-08-26T22:10:30.266Z,85.60
2017-08-26T22:12:58.710Z,84.30
2017-08-26T22:15:27.044Z,62.17
2017-08-26T22:17:55.398Z,81.27
2017-08-26T22:20:23.776Z,79.63
2017-08-26T22:22:52.113Z,77.33
2017-08-26T22:25:20.446Z,74.60
2017-08-26T22:27:48.785Z,83.43
2017-08-26T22:30:17.140Z,83.70
2017-08-26T22:32:45.464Z,83.10
2017-08-26T22:35:14.101Z,79.73
2017-08-26T22:37:42.428Z,88.90
2017-08-26T22:40:10.719Z,83.57
2017-08-26T22:42:39.035Z,95.57
2017-08-26T22:45:07.342Z,85.00
2017-08-26T22:47:35.692Z,86.40
2017-08-26T22:50:04.004Z,82.60
2017-08-26T22:52:32.344Z,95.90
2017-08-26T22:55:00.655Z,92.90
2017-08-26T22:57:28.999Z,90.57
2017-08-26T22:59:57.306Z,96.90
2017-08-26T23:02:25.652Z,92.63
2017-08-26T23:04:53.961Z,94.03
2017-08-26T23:07:22.406Z,94.03
2017-08-26T23:09:50.708Z,89.10
2017-08-26T23:12:19.008Z,97.17
2017-08-26T23:14:47.375Z,95.33
2017-08-26T23:17:15.710Z,97.80
2017-08-26T23:19:44.082Z,92.47
2017-08-26T23:22:12.394Z,90.97
2017-08-26T23:24:40.740Z,88.50
2017-08-26T23:27:09.073Z,89.10
2017-08-26T23:29:37.413Z,88.27
2017-08-26T23:32:05.723Z,87.17
2017-08-26T23:34:34.206Z,90.30
2017-08-26T23:37:02.499Z,84.07
2017-08-26T23:39:30.801Z,87.93
2017-08-26T23:41:59.560Z,87.50
2017-08-26T23:44:27.871Z,91.07
2017-08-26T23:46:56.244Z,92.53
2017-08-26T23:49:24.560Z,90.80
2017-08-26T23:51:52.899Z,99.77
2017-08-26T23:54:21.209Z,91.33
2017-08-26T23:56:49.647Z,88.67
2017-08-26T23:59:17.971Z,95.63
